sensor_id;sensor_type;location;lat;lon;timestamp;P1;durP1;ratioP1;P2;durP2;ratioP2
19219;SDS011;9744;49.364;7.484;2023-07-24T00:01:16;3.17;;;1.92;;
19219;SDS011;9744;49.364;7.484;2023-07-24T00:03:43;5.00;;;2.17;;
19219;SDS011;9744;49.364;7.484;2023-07-24T00:06:10;5.47;;;2.47;;
19219;SDS011;9744;49.364;7.484;2023-07-24T00:08:38;3.05;;;2.10;;
19219;SDS011;9744;49.364;7.484;2023-07-24T00:11:06;5.50;;;2.33;;
19219;SDS011;9744;49.364;7.484;2023-07-24T00:13:35;5.35;;;2.33;;
19219;SDS011;9744;49.364;7.484;2023-07-24T00:16:05;4.88;;;2.08;;
19219;SDS011;9744;49.364;7.484;2023-07-24T00:18:35;3.28;;;2.55;;
19219;SDS011;9744;49.364;7.484;2023-07-24T00:21:02;3.22;;;2.20;;
19219;SDS011;9744;49.364;7.484;2023-07-24T00:23:29;3.15;;;2.00;;
19219;SDS011;9744;49.364;7.484;2023-07-24T00:25:56;5.40;;;2.45;;
19219;SDS011;9744;49.364;7.484;2023-07-24T00:28:24;2.95;;;2.00;;
19219;SDS011;9744;49.364;7.484;2023-07-24T00:30:52;6.95;;;2.50;;
19219;SDS011;9744;49.364;7.484;2023-07-24T00:33:19;7.80;;;2.70;;
19219;SDS011;9744;49.364;7.484;2023-07-24T00:35:48;3.25;;;2.45;;
19219;SDS011;9744;49.364;7.484;2023-07-24T00:38:16;2.45;;;1.90;;
19219;SDS011;9744;49.364;7.484;2023-07-24T00:40:43;5.22;;;2.70;;
19219;SDS011;9744;49.364;7.484;2023-07-24T00:43:11;2.78;;;2.00;;
19219;SDS011;9744;49.364;7.484;2023-07-24T00:45:38;3.83;;;2.45;;
19219;SDS011;9744;49.364;7.484;2023-07-24T00:48:05;5.18;;;2.63;;
19219;SDS011;9744;49.364;7.484;2023-07-24T00:50:32;2.65;;;2.13;;
19219;SDS011;9744;49.364;7.484;2023-07-24T00:53:02;3.38;;;2.25;;
19219;SDS011;9744;49.364;7.484;2023-07-24T00:55:30;4.75;;;2.30;;
19219;SDS011;9744;49.364;7.484;2023-07-24T00:57:57;5.38;;;2.53;;
19219;SDS011;9744;49.364;7.484;2023-07-24T01:00:26;6.35;;;2.60;;
19219;SDS011;9744;49.364;7.484;2023-07-24T01:02:54;6.60;;;2.30;;
19219;SDS011;9744;49.364;7.484;2023-07-24T01:05:22;4.70;;;3.13;;
19219;SDS011;9744;49.364;7.484;2023-07-24T01:07:51;5.75;;;3.00;;
19219;SDS011;9744;49.364;7.484;2023-07-24T01:10:20;3.40;;;2.50;;
19219;SDS011;9744;49.364;7.484;2023-07-24T01:12:51;4.55;;;1.90;;
19219;SDS011;9744;49.364;7.484;2023-07-24T01:15:25;2.95;;;1.90;;
19219;SDS011;9744;49.364;7.484;2023-07-24T01:17:59;7.60;;;1.90;;
19219;SDS011;9744;49.364;7.484;2023-07-24T01:20:30;4.32;;;2.30;;
19219;SDS011;9744;49.364;7.484;2023-07-24T01:23:04;5.45;;;1.80;;
19219;SDS011;9744;49.364;7.484;2023-07-24T01:25:53;3.30;;;2.20;;
19219;SDS011;9744;49.364;7.484;2023-07-24T01:28:22;2.88;;;2.00;;
19219;SDS011;9744;49.364;7.484;2023-07-24T01:30:49;4.57;;;2.35;;
19219;SDS011;9744;49.364;7.484;2023-07-24T01:33:17;4.70;;;2.45;;
19219;SDS011;9744;49.364;7.484;2023-07-24T01:35:46;4.40;;;2.17;;
19219;SDS011;9744;49.364;7.484;2023-07-24T01:38:16;3.33;;;2.22;;
19219;SDS011;9744;49.364;7.484;2023-07-24T01:40:44;6.18;;;2.47;;
19219;SDS011;9744;49.364;7.484;2023-07-24T01:43:13;5.45;;;2.63;;
19219;SDS011;9744;49.364;7.484;2023-07-24T01:45:41;3.05;;;2.33;;
19219;SDS011;9744;49.364;7.484;2023-07-24T01:48:08;3.38;;;2.17;;
19219;SDS011;9744;49.364;7.484;2023-07-24T01:50:35;6.03;;;2.78;;
19219;SDS011;9744;49.364;7.484;2023-07-24T01:53:02;3.08;;;2.50;;
19219;SDS011;9744;49.364;7.484;2023-07-24T01:55:29;7.75;;;2.80;;
19219;SDS011;9744;49.364;7.484;2023-07-24T01:57:57;2.72;;;2.25;;
19219;SDS011;9744;49.364;7.484;2023-07-24T02:00:25;7.97;;;3.03;;
19219;SDS011;9744;49.364;7.484;2023-07-24T02:02:58;4.47;;;2.50;;
19219;SDS011;9744;49.364;7.484;2023-07-24T02:05:25;3.95;;;2.70;;
19219;SDS011;9744;49.364;7.484;2023-07-24T02:07:53;3.30;;;2.63;;
19219;SDS011;9744;49.364;7.484;2023-07-24T02:10:20;4.50;;;2.42;;
19219;SDS011;9744;49.364;7.484;2023-07-24T02:12:47;3.50;;;2.67;;
19219;SDS011;9744;49.364;7.484;2023-07-24T02:15:14;4.53;;;2.60;;
19219;SDS011;9744;49.364;7.484;2023-07-24T02:17:43;4.70;;;3.08;;
19219;SDS011;9744;49.364;7.484;2023-07-24T02:20:10;6.70;;;2.80;;
19219;SDS011;9744;49.364;7.484;2023-07-24T02:22:42;6.25;;;3.30;;
19219;SDS011;9744;49.364;7.484;2023-07-24T02:25:09;10.75;;;3.40;;
19219;SDS011;9744;49.364;7.484;2023-07-24T02:27:37;7.35;;;3.60;;
19219;SDS011;9744;49.364;7.484;2023-07-24T02:30:04;7.72;;;3.13;;
19219;SDS011;9744;49.364;7.484;2023-07-24T02:32:34;5.50;;;3.15;;
19219;SDS011;9744;49.364;7.484;2023-07-24T02:35:03;7.03;;;3.25;;
19219;SDS011;9744;49.364;7.484;2023-07-24T02:37:31;5.90;;;2.90;;
19219;SDS011;9744;49.364;7.484;2023-07-24T02:39:58;4.88;;;3.17;;
19219;SDS011;9744;49.364;7.484;2023-07-24T02:42:26;6.50;;;3.20;;
19219;SDS011;9744;49.364;7.484;2023-07-24T02:44:53;4.50;;;2.95;;
19219;SDS011;9744;49.364;7.484;2023-07-24T02:47:21;4.18;;;3.10;;
19219;SDS011;9744;49.364;7.484;2023-07-24T02:49:48;3.35;;;2.72;;
19219;SDS011;9744;49.364;7.484;2023-07-24T02:52:16;4.13;;;2.95;;
19219;SDS011;9744;49.364;7.484;2023-07-24T02:54:44;6.28;;;2.90;;
19219;SDS011;9744;49.364;7.484;2023-07-24T02:57:11;4.63;;;2.85;;
19219;SDS011;9744;49.364;7.484;2023-07-24T02:59:38;2.90;;;2.60;;
19219;SDS011;9744;49.364;7.484;2023-07-24T03:02:05;8.15;;;3.42;;
19219;SDS011;9744;49.364;7.484;2023-07-24T03:04:32;3.72;;;2.92;;
19219;SDS011;9744;49.364;7.484;2023-07-24T03:07:00;5.72;;;3.28;;
19219;SDS011;9744;49.364;7.484;2023-07-24T03:09:29;5.53;;;3.30;;
19219;SDS011;9744;49.364;7.484;2023-07-24T03:11:59;9.60;;;3.67;;
19219;SDS011;9744;49.364;7.484;2023-07-24T03:14:26;7.60;;;3.60;;
19219;SDS011;9744;49.364;7.484;2023-07-24T03:16:53;4.65;;;3.45;;
19219;SDS011;9744;49.364;7.484;2023-07-24T03:19:20;5.30;;;3.72;;
19219;SDS011;9744;49.364;7.484;2023-07-24T03:21:48;10.60;;;3.58;;
19219;SDS011;9744;49.364;7.484;2023-07-24T03:24:15;5.22;;;3.20;;
19219;SDS011;9744;49.364;7.484;2023-07-24T03:26:44;9.23;;;3.15;;
19219;SDS011;9744;49.364;7.484;2023-07-24T03:29:11;7.18;;;3.47;;
19219;SDS011;9744;49.364;7.484;2023-07-24T03:31:39;4.82;;;3.15;;
19219;SDS011;9744;49.364;7.484;2023-07-24T03:34:06;4.22;;;2.80;;
19219;SDS011;9744;49.364;7.484;2023-07-24T03:36:33;3.95;;;3.03;;
19219;SDS011;9744;49.364;7.484;2023-07-24T03:39:01;6.18;;;3.50;;
19219;SDS011;9744;49.364;7.484;2023-07-24T03:41:28;4.68;;;3.08;;
19219;SDS011;9744;49.364;7.484;2023-07-24T03:43:58;7.10;;;3.53;;
19219;SDS011;9744;49.364;7.484;2023-07-24T03:46:25;6.57;;;3.20;;
19219;SDS011;9744;49.364;7.484;2023-07-24T03:48:52;7.22;;;3.28;;
19219;SDS011;9744;49.364;7.484;2023-07-24T03:51:19;6.05;;;3.78;;
19219;SDS011;9744;49.364;7.484;2023-07-24T03:53:47;12.07;;;3.50;;
19219;SDS011;9744;49.364;7.484;2023-07-24T03:56:14;3.53;;;3.13;;
19219;SDS011;9744;49.364;7.484;2023-07-24T03:58:41;3.88;;;3.42;;
19219;SDS011;9744;49.364;7.484;2023-07-24T04:01:10;9.85;;;3.47;;
19219;SDS011;9744;49.364;7.484;2023-07-24T04:03:37;7.32;;;3.65;;
19219;SDS011;9744;49.364;7.484;2023-07-24T04:06:04;5.05;;;3.63;;
19219;SDS011;9744;49.364;7.484;2023-07-24T04:08:31;10.60;;;3.72;;
19219;SDS011;9744;49.364;7.484;2023-07-24T04:10:59;5.30;;;3.63;;
19219;SDS011;9744;49.364;7.484;2023-07-24T04:13:26;7.35;;;3.13;;
19219;SDS011;9744;49.364;7.484;2023-07-24T04:15:53;6.13;;;3.42;;
19219;SDS011;9744;49.364;7.484;2023-07-24T04:18:23;7.15;;;3.35;;
19219;SDS011;9744;49.364;7.484;2023-07-24T04:20:50;7.10;;;3.60;;
19219;SDS011;9744;49.364;7.484;2023-07-24T04:23:18;7.05;;;4.03;;
19219;SDS011;9744;49.364;7.484;2023-07-24T04:25:45;6.13;;;3.80;;
19219;SDS011;9744;49.364;7.484;2023-07-24T04:28:12;6.50;;;4.05;;
19219;SDS011;9744;49.364;7.484;2023-07-24T04:30:39;5.70;;;3.75;;
19219;SDS011;9744;49.364;7.484;2023-07-24T04:33:07;7.57;;;3.75;;
19219;SDS011;9744;49.364;7.484;2023-07-24T04:35:35;5.53;;;3.90;;
19219;SDS011;9744;49.364;7.484;2023-07-24T04:38:03;4.38;;;3.20;;
19219;SDS011;9744;49.364;7.484;2023-07-24T04:40:30;5.45;;;3.58;;
19219;SDS011;9744;49.364;7.484;2023-07-24T04:42:57;4.97;;;3.17;;
19219;SDS011;9744;49.364;7.484;2023-07-24T04:45:24;8.50;;;3.60;;
19219;SDS011;9744;49.364;7.484;2023-07-24T04:47:52;7.40;;;3.58;;
19219;SDS011;9744;49.364;7.484;2023-07-24T04:50:19;6.75;;;3.67;;
19219;SDS011;9744;49.364;7.484;2023-07-24T04:52:47;5.60;;;3.50;;
19219;SDS011;9744;49.364;7.484;2023-07-24T04:55:14;5.97;;;3.60;;
19219;SDS011;9744;49.364;7.484;2023-07-24T04:57:42;4.10;;;3.40;;
19219;SDS011;9744;49.364;7.484;2023-07-24T05:00:10;5.50;;;3.58;;
19219;SDS011;9744;49.364;7.484;2023-07-24T05:02:37;13.35;;;4.03;;
19219;SDS011;9744;49.364;7.484;2023-07-24T05:05:05;9.30;;;4.05;;
19219;SDS011;9744;49.364;7.484;2023-07-24T05:07:33;6.93;;;3.88;;
19219;SDS011;9744;49.364;7.484;2023-07-24T05:10:02;4.72;;;3.42;;
19219;SDS011;9744;49.364;7.484;2023-07-24T05:12:30;5.70;;;3.80;;
19219;SDS011;9744;49.364;7.484;2023-07-24T05:14:57;6.55;;;4.20;;
19219;SDS011;9744;49.364;7.484;2023-07-24T05:17:24;8.13;;;4.28;;
19219;SDS011;9744;49.364;7.484;2023-07-24T05:19:51;5.88;;;4.38;;
19219;SDS011;9744;49.364;7.484;2023-07-24T05:22:19;6.00;;;4.20;;
19219;SDS011;9744;49.364;7.484;2023-07-24T05:24:46;5.60;;;3.65;;
19219;SDS011;9744;49.364;7.484;2023-07-24T05:27:14;7.55;;;3.70;;
19219;SDS011;9744;49.364;7.484;2023-07-24T05:29:42;13.45;;;3.97;;
19219;SDS011;9744;49.364;7.484;2023-07-24T05:32:10;6.20;;;3.95;;
19219;SDS011;9744;49.364;7.484;2023-07-24T05:34:37;6.65;;;4.03;;
19219;SDS011;9744;49.364;7.484;2023-07-24T05:37:05;7.38;;;3.72;;
19219;SDS011;9744;49.364;7.484;2023-07-24T05:39:32;4.55;;;3.72;;
19219;SDS011;9744;49.364;7.484;2023-07-24T05:41:59;7.85;;;4.47;;
19219;SDS011;9744;49.364;7.484;2023-07-24T05:44:29;8.93;;;3.88;;
19219;SDS011;9744;49.364;7.484;2023-07-24T05:46:56;6.85;;;3.70;;
19219;SDS011;9744;49.364;7.484;2023-07-24T05:49:23;5.53;;;4.03;;
19219;SDS011;9744;49.364;7.484;2023-07-24T05:51:51;7.60;;;3.80;;
19219;SDS011;9744;49.364;7.484;2023-07-24T05:54:19;6.75;;;3.65;;
19219;SDS011;9744;49.364;7.484;2023-07-24T05:56:46;7.70;;;4.45;;
19219;SDS011;9744;49.364;7.484;2023-07-24T05:59:13;7.53;;;4.47;;
19219;SDS011;9744;49.364;7.484;2023-07-24T06:01:42;5.95;;;4.35;;
19219;SDS011;9744;49.364;7.484;2023-07-24T06:04:09;6.88;;;4.13;;
19219;SDS011;9744;49.364;7.484;2023-07-24T06:06:36;5.53;;;3.83;;
19219;SDS011;9744;49.364;7.484;2023-07-24T06:09:04;6.20;;;4.43;;
19219;SDS011;9744;49.364;7.484;2023-07-24T06:11:31;7.10;;;4.45;;
19219;SDS011;9744;49.364;7.484;2023-07-24T06:13:58;10.55;;;4.82;;
19219;SDS011;9744;49.364;7.484;2023-07-24T06:16:25;5.90;;;4.18;;
19219;SDS011;9744;49.364;7.484;2023-07-24T06:18:54;10.18;;;4.28;;
19219;SDS011;9744;49.364;7.484;2023-07-24T06:21:21;5.95;;;4.15;;
19219;SDS011;9744;49.364;7.484;2023-07-24T06:23:49;11.80;;;4.28;;
19219;SDS011;9744;49.364;7.484;2023-07-24T06:26:16;7.90;;;4.70;;
19219;SDS011;9744;49.364;7.484;2023-07-24T06:28:43;10.93;;;5.25;;
19219;SDS011;9744;49.364;7.484;2023-07-24T06:31:10;6.97;;;4.15;;
19219;SDS011;9744;49.364;7.484;2023-07-24T06:33:37;5.63;;;4.18;;
19219;SDS011;9744;49.364;7.484;2023-07-24T06:36:09;7.30;;;4.95;;
19219;SDS011;9744;49.364;7.484;2023-07-24T06:38:37;6.65;;;4.03;;
19219;SDS011;9744;49.364;7.484;2023-07-24T06:41:05;7.65;;;4.75;;
19219;SDS011;9744;49.364;7.484;2023-07-24T06:43:32;7.63;;;4.97;;
19219;SDS011;9744;49.364;7.484;2023-07-24T06:46:00;7.70;;;4.53;;
19219;SDS011;9744;49.364;7.484;2023-07-24T06:48:27;9.80;;;4.80;;
19219;SDS011;9744;49.364;7.484;2023-07-24T06:50:54;6.80;;;4.82;;
19219;SDS011;9744;49.364;7.484;2023-07-24T06:53:22;8.50;;;4.97;;
19219;SDS011;9744;49.364;7.484;2023-07-24T06:55:50;12.60;;;5.03;;
19219;SDS011;9744;49.364;7.484;2023-07-24T06:58:17;7.68;;;5.10;;
19219;SDS011;9744;49.364;7.484;2023-07-24T07:00:44;7.43;;;5.32;;
19219;SDS011;9744;49.364;7.484;2023-07-24T07:03:11;10.48;;;5.07;;
19219;SDS011;9744;49.364;7.484;2023-07-24T07:05:38;10.45;;;5.30;;
19219;SDS011;9744;49.364;7.484;2023-07-24T07:08:05;13.43;;;5.57;;
19219;SDS011;9744;49.364;7.484;2023-07-24T07:10:34;10.90;;;6.07;;
19219;SDS011;9744;49.364;7.484;2023-07-24T07:13:01;9.60;;;5.22;;
19219;SDS011;9744;49.364;7.484;2023-07-24T07:15:29;8.55;;;5.38;;
19219;SDS011;9744;49.364;7.484;2023-07-24T07:17:56;9.77;;;5.82;;
19219;SDS011;9744;49.364;7.484;2023-07-24T07:20:23;11.45;;;5.50;;
19219;SDS011;9744;49.364;7.484;2023-07-24T07:22:50;9.43;;;5.28;;
19219;SDS011;9744;49.364;7.484;2023-07-24T07:25:17;8.20;;;5.13;;
19219;SDS011;9744;49.364;7.484;2023-07-24T07:27:46;14.70;;;5.50;;
19219;SDS011;9744;49.364;7.484;2023-07-24T07:30:13;8.85;;;5.30;;
19219;SDS011;9744;49.364;7.484;2023-07-24T07:32:41;9.25;;;5.30;;
19219;SDS011;9744;49.364;7.484;2023-07-24T07:35:08;12.20;;;5.32;;
19219;SDS011;9744;49.364;7.484;2023-07-24T07:37:36;14.45;;;6.18;;
19219;SDS011;9744;49.364;7.484;2023-07-24T07:40:03;7.03;;;4.97;;
19219;SDS011;9744;49.364;7.484;2023-07-24T07:42:32;6.65;;;4.50;;
19219;SDS011;9744;49.364;7.484;2023-07-24T07:45:00;11.57;;;4.72;;
19219;SDS011;9744;49.364;7.484;2023-07-24T07:47:28;9.73;;;4.70;;
19219;SDS011;9744;49.364;7.484;2023-07-24T07:49:55;7.88;;;4.82;;
19219;SDS011;9744;49.364;7.484;2023-07-24T07:52:22;7.88;;;4.72;;
19219;SDS011;9744;49.364;7.484;2023-07-24T07:54:49;9.27;;;4.55;;
19219;SDS011;9744;49.364;7.484;2023-07-24T07:57:16;6.63;;;4.68;;
19219;SDS011;9744;49.364;7.484;2023-07-24T07:59:44;7.20;;;4.43;;
19219;SDS011;9744;49.364;7.484;2023-07-24T08:02:12;6.30;;;4.07;;
19219;SDS011;9744;49.364;7.484;2023-07-24T08:04:39;7.38;;;3.47;;
19219;SDS011;9744;49.364;7.484;2023-07-24T08:07:07;7.93;;;3.78;;
19219;SDS011;9744;49.364;7.484;2023-07-24T08:09:34;5.70;;;4.10;;
19219;SDS011;9744;49.364;7.484;2023-07-24T08:12:03;5.40;;;3.70;;
19219;SDS011;9744;49.364;7.484;2023-07-24T08:14:31;8.20;;;4.20;;
19219;SDS011;9744;49.364;7.484;2023-07-24T08:16:58;7.38;;;3.83;;
19219;SDS011;9744;49.364;7.484;2023-07-24T08:19:29;6.07;;;3.50;;
19219;SDS011;9744;49.364;7.484;2023-07-24T08:21:56;4.68;;;3.65;;
19219;SDS011;9744;49.364;7.484;2023-07-24T08:24:23;6.80;;;3.63;;
19219;SDS011;9744;49.364;7.484;2023-07-24T08:26:50;6.38;;;4.03;;
19219;SDS011;9744;49.364;7.484;2023-07-24T08:29:17;6.20;;;4.03;;
19219;SDS011;9744;49.364;7.484;2023-07-24T08:31:45;7.47;;;3.45;;
19219;SDS011;9744;49.364;7.484;2023-07-24T08:34:12;10.48;;;4.25;;
19219;SDS011;9744;49.364;7.484;2023-07-24T08:36:40;10.18;;;4.03;;
19219;SDS011;9744;49.364;7.484;2023-07-24T08:39:07;8.30;;;3.97;;
19219;SDS011;9744;49.364;7.484;2023-07-24T08:41:35;4.72;;;3.42;;
19219;SDS011;9744;49.364;7.484;2023-07-24T08:44:03;5.63;;;3.65;;
19219;SDS011;9744;49.364;7.484;2023-07-24T08:46:31;4.97;;;3.65;;
19219;SDS011;9744;49.364;7.484;2023-07-24T08:49:03;10.32;;;3.72;;
19219;SDS011;9744;49.364;7.484;2023-07-24T08:51:31;6.53;;;3.47;;
19219;SDS011;9744;49.364;7.484;2023-07-24T08:54:00;6.38;;;3.83;;
19219;SDS011;9744;49.364;7.484;2023-07-24T08:56:29;6.18;;;4.00;;
19219;SDS011;9744;49.364;7.484;2023-07-24T08:58:56;6.93;;;4.20;;
19219;SDS011;9744;49.364;7.484;2023-07-24T09:01:23;5.35;;;3.83;;
19219;SDS011;9744;49.364;7.484;2023-07-24T09:03:51;5.47;;;3.60;;
19219;SDS011;9744;49.364;7.484;2023-07-24T09:06:18;5.40;;;3.67;;
19219;SDS011;9744;49.364;7.484;2023-07-24T09:08:46;5.65;;;3.55;;
19219;SDS011;9744;49.364;7.484;2023-07-24T09:11:14;6.25;;;3.80;;
19219;SDS011;9744;49.364;7.484;2023-07-24T09:13:42;7.22;;;3.70;;
19219;SDS011;9744;49.364;7.484;2023-07-24T09:16:20;5.38;;;3.42;;
19219;SDS011;9744;49.364;7.484;2023-07-24T09:18:48;8.32;;;3.40;;
19219;SDS011;9744;49.364;7.484;2023-07-24T09:21:26;7.43;;;3.70;;
19219;SDS011;9744;49.364;7.484;2023-07-24T09:23:54;6.68;;;3.42;;
19219;SDS011;9744;49.364;7.484;2023-07-24T09:26:22;5.93;;;3.80;;
19219;SDS011;9744;49.364;7.484;2023-07-24T09:28:53;8.75;;;3.55;;
19219;SDS011;9744;49.364;7.484;2023-07-24T09:31:20;5.00;;;3.17;;
19219;SDS011;9744;49.364;7.484;2023-07-24T09:33:47;10.00;;;4.00;;
19219;SDS011;9744;49.364;7.484;2023-07-24T09:36:15;6.05;;;3.65;;
19219;SDS011;9744;49.364;7.484;2023-07-24T09:38:42;4.88;;;3.45;;
19219;SDS011;9744;49.364;7.484;2023-07-24T09:41:09;5.43;;;3.47;;
19219;SDS011;9744;49.364;7.484;2023-07-24T09:43:38;6.25;;;3.00;;
19219;SDS011;9744;49.364;7.484;2023-07-24T09:46:05;5.57;;;3.67;;
19219;SDS011;9744;49.364;7.484;2023-07-24T09:48:33;5.40;;;3.33;;
19219;SDS011;9744;49.364;7.484;2023-07-24T09:51:01;8.65;;;3.67;;
19219;SDS011;9744;49.364;7.484;2023-07-24T09:53:31;8.90;;;3.97;;
19219;SDS011;9744;49.364;7.484;2023-07-24T09:56:01;6.55;;;3.97;;
19219;SDS011;9744;49.364;7.484;2023-07-24T09:58:31;10.00;;;4.28;;
19219;SDS011;9744;49.364;7.484;2023-07-24T10:01:01;4.75;;;3.53;;
19219;SDS011;9744;49.364;7.484;2023-07-24T10:03:29;5.93;;;4.10;;
19219;SDS011;9744;49.364;7.484;2023-07-24T10:05:57;7.45;;;4.50;;
19219;SDS011;9744;49.364;7.484;2023-07-24T10:08:24;5.80;;;4.07;;
19219;SDS011;9744;49.364;7.484;2023-07-24T10:10:53;6.93;;;3.90;;
19219;SDS011;9744;49.364;7.484;2023-07-24T10:13:20;7.85;;;3.90;;
19219;SDS011;9744;49.364;7.484;2023-07-24T10:15:48;6.93;;;4.40;;
19219;SDS011;9744;49.364;7.484;2023-07-24T10:18:17;9.60;;;4.38;;
19219;SDS011;9744;49.364;7.484;2023-07-24T10:20:59;6.07;;;4.18;;
19219;SDS011;9744;49.364;7.484;2023-07-24T10:23:27;7.57;;;3.83;;
19219;SDS011;9744;49.364;7.484;2023-07-24T10:25:54;9.32;;;4.30;;
19219;SDS011;9744;49.364;7.484;2023-07-24T10:28:29;7.30;;;4.47;;
19219;SDS011;9744;49.364;7.484;2023-07-24T10:30:57;12.30;;;4.68;;
19219;SDS011;9744;49.364;7.484;2023-07-24T10:33:29;15.10;;;4.93;;
19219;SDS011;9744;49.364;7.484;2023-07-24T10:36:03;10.88;;;4.43;;
19219;SDS011;9744;49.364;7.484;2023-07-24T10:38:33;6.68;;;4.05;;
19219;SDS011;9744;49.364;7.484;2023-07-24T10:41:02;6.68;;;4.45;;
19219;SDS011;9744;49.364;7.484;2023-07-24T10:43:39;6.30;;;4.63;;
19219;SDS011;9744;49.364;7.484;2023-07-24T10:46:08;8.50;;;4.70;;
19219;SDS011;9744;49.364;7.484;2023-07-24T10:48:36;8.60;;;4.45;;
19219;SDS011;9744;49.364;7.484;2023-07-24T10:51:08;5.85;;;4.32;;
19219;SDS011;9744;49.364;7.484;2023-07-24T10:53:36;7.32;;;4.53;;
19219;SDS011;9744;49.364;7.484;2023-07-24T10:56:04;10.68;;;5.28;;
19219;SDS011;9744;49.364;7.484;2023-07-24T10:58:33;6.70;;;4.00;;
19219;SDS011;9744;49.364;7.484;2023-07-24T11:01:03;6.20;;;4.55;;
19219;SDS011;9744;49.364;7.484;2023-07-24T11:03:32;6.18;;;4.10;;
19219;SDS011;9744;49.364;7.484;2023-07-24T11:06:03;8.82;;;4.35;;
19219;SDS011;9744;49.364;7.484;2023-07-24T11:08:30;6.13;;;3.90;;
19219;SDS011;9744;49.364;7.484;2023-07-24T11:10:59;5.90;;;4.50;;
19219;SDS011;9744;49.364;7.484;2023-07-24T11:13:28;6.53;;;4.28;;
19219;SDS011;9744;49.364;7.484;2023-07-24T11:15:55;9.20;;;4.20;;
19219;SDS011;9744;49.364;7.484;2023-07-24T11:18:22;7.45;;;4.53;;
19219;SDS011;9744;49.364;7.484;2023-07-24T11:20:52;6.50;;;4.57;;
19219;SDS011;9744;49.364;7.484;2023-07-24T11:23:23;7.53;;;5.07;;
19219;SDS011;9744;49.364;7.484;2023-07-24T11:25:50;7.53;;;4.85;;
19219;SDS011;9744;49.364;7.484;2023-07-24T11:28:18;9.00;;;5.18;;
19219;SDS011;9744;49.364;7.484;2023-07-24T11:30:46;10.48;;;5.38;;
19219;SDS011;9744;49.364;7.484;2023-07-24T11:33:14;6.97;;;4.60;;
19219;SDS011;9744;49.364;7.484;2023-07-24T11:35:42;7.07;;;5.32;;
19219;SDS011;9744;49.364;7.484;2023-07-24T11:38:10;10.90;;;5.35;;
19219;SDS011;9744;49.364;7.484;2023-07-24T11:40:39;8.15;;;5.35;;
19219;SDS011;9744;49.364;7.484;2023-07-24T11:43:14;15.95;;;5.30;;
19219;SDS011;9744;49.364;7.484;2023-07-24T11:45:43;7.95;;;4.88;;
19219;SDS011;9744;49.364;7.484;2023-07-24T11:48:12;9.10;;;5.30;;
19219;SDS011;9744;49.364;7.484;2023-07-24T11:50:43;7.82;;;5.03;;
19219;SDS011;9744;49.364;7.484;2023-07-24T11:53:18;29.60;;;6.82;;
19219;SDS011;9744;49.364;7.484;2023-07-24T11:55:48;27.00;;;7.45;;
19219;SDS011;9744;49.364;7.484;2023-07-24T11:58:16;9.88;;;5.22;;
19219;SDS011;9744;49.364;7.484;2023-07-24T12:00:45;8.07;;;5.85;;
19219;SDS011;9744;49.364;7.484;2023-07-24T12:03:13;6.90;;;4.72;;
19219;SDS011;9744;49.364;7.484;2023-07-24T12:05:40;8.05;;;5.47;;
19219;SDS011;9744;49.364;7.484;2023-07-24T12:08:09;8.95;;;5.88;;
19219;SDS011;9744;49.364;7.484;2023-07-24T12:10:37;10.60;;;5.65;;
19219;SDS011;9744;49.364;7.484;2023-07-24T12:13:06;7.90;;;5.63;;
19219;SDS011;9744;49.364;7.484;2023-07-24T12:15:34;7.20;;;5.32;;
19219;SDS011;9744;49.364;7.484;2023-07-24T12:18:01;9.05;;;5.80;;
19219;SDS011;9744;49.364;7.484;2023-07-24T12:20:29;9.70;;;5.75;;
19219;SDS011;9744;49.364;7.484;2023-07-24T12:22:56;10.10;;;5.72;;
19219;SDS011;9744;49.364;7.484;2023-07-24T12:25:32;7.80;;;6.30;;
19219;SDS011;9744;49.364;7.484;2023-07-24T12:28:05;9.23;;;6.05;;
19219;SDS011;9744;49.364;7.484;2023-07-24T12:30:33;12.93;;;6.18;;
19219;SDS011;9744;49.364;7.484;2023-07-24T12:33:00;16.35;;;6.80;;
19219;SDS011;9744;49.364;7.484;2023-07-24T12:35:27;10.82;;;7.13;;
19219;SDS011;9744;49.364;7.484;2023-07-24T12:37:54;11.25;;;7.07;;
19219;SDS011;9744;49.364;7.484;2023-07-24T12:40:21;9.93;;;6.70;;
19219;SDS011;9744;49.364;7.484;2023-07-24T12:42:49;10.00;;;7.05;;
19219;SDS011;9744;49.364;7.484;2023-07-24T12:45:17;12.10;;;8.07;;
19219;SDS011;9744;49.364;7.484;2023-07-24T12:47:44;11.05;;;7.57;;
19219;SDS011;9744;49.364;7.484;2023-07-24T12:50:11;15.27;;;8.48;;
19219;SDS011;9744;49.364;7.484;2023-07-24T12:52:39;12.35;;;7.82;;
19219;SDS011;9744;49.364;7.484;2023-07-24T12:55:06;9.30;;;7.15;;
19219;SDS011;9744;49.364;7.484;2023-07-24T12:57:34;11.05;;;7.05;;
19219;SDS011;9744;49.364;7.484;2023-07-24T13:00:01;9.43;;;7.35;;
19219;SDS011;9744;49.364;7.484;2023-07-24T13:02:32;9.98;;;6.38;;
19219;SDS011;9744;49.364;7.484;2023-07-24T13:04:59;10.65;;;6.07;;
19219;SDS011;9744;49.364;7.484;2023-07-24T13:07:27;9.90;;;6.10;;
19219;SDS011;9744;49.364;7.484;2023-07-24T13:09:54;10.43;;;6.10;;
19219;SDS011;9744;49.364;7.484;2023-07-24T13:12:22;7.70;;;5.22;;
19219;SDS011;9744;49.364;7.484;2023-07-24T13:14:49;9.40;;;5.43;;
19219;SDS011;9744;49.364;7.484;2023-07-24T13:17:16;10.15;;;5.32;;
19219;SDS011;9744;49.364;7.484;2023-07-24T13:19:45;7.65;;;5.13;;
19219;SDS011;9744;49.364;7.484;2023-07-24T13:22:12;5.97;;;3.80;;
19219;SDS011;9744;49.364;7.484;2023-07-24T13:24:39;6.70;;;3.90;;
19219;SDS011;9744;49.364;7.484;2023-07-24T13:27:06;4.38;;;3.25;;
19219;SDS011;9744;49.364;7.484;2023-07-24T13:29:33;4.57;;;3.20;;
19219;SDS011;9744;49.364;7.484;2023-07-24T13:32:01;5.07;;;3.55;;
19219;SDS011;9744;49.364;7.484;2023-07-24T13:34:28;4.88;;;3.58;;
19219;SDS011;9744;49.364;7.484;2023-07-24T13:36:56;9.13;;;4.32;;
19219;SDS011;9744;49.364;7.484;2023-07-24T13:39:23;10.35;;;3.97;;
19219;SDS011;9744;49.364;7.484;2023-07-24T13:41:53;4.03;;;3.63;;
19219;SDS011;9744;49.364;7.484;2023-07-24T13:44:21;6.18;;;3.72;;
19219;SDS011;9744;49.364;7.484;2023-07-24T13:46:48;8.30;;;3.58;;
19219;SDS011;9744;49.364;7.484;2023-07-24T13:49:15;4.65;;;3.03;;
19219;SDS011;9744;49.364;7.484;2023-07-24T13:51:43;4.63;;;3.38;;
19219;SDS011;9744;49.364;7.484;2023-07-24T13:54:11;5.00;;;3.05;;
19219;SDS011;9744;49.364;7.484;2023-07-24T13:56:38;3.92;;;2.65;;
19219;SDS011;9744;49.364;7.484;2023-07-24T13:59:08;5.20;;;2.50;;
19219;SDS011;9744;49.364;7.484;2023-07-24T14:01:35;3.33;;;2.40;;
19219;SDS011;9744;49.364;7.484;2023-07-24T14:04:03;2.50;;;2.10;;
19219;SDS011;9744;49.364;7.484;2023-07-24T14:06:30;3.58;;;2.00;;
19219;SDS011;9744;49.364;7.484;2023-07-24T14:08:57;3.97;;;1.90;;
19219;SDS011;9744;49.364;7.484;2023-07-24T14:11:26;3.33;;;2.30;;
19219;SDS011;9744;49.364;7.484;2023-07-24T14:13:54;2.28;;;1.98;;
19219;SDS011;9744;49.364;7.484;2023-07-24T14:16:21;3.00;;;1.90;;
19219;SDS011;9744;49.364;7.484;2023-07-24T14:18:49;2.95;;;1.98;;
19219;SDS011;9744;49.364;7.484;2023-07-24T14:21:17;5.70;;;2.08;;
19219;SDS011;9744;49.364;7.484;2023-07-24T14:23:44;2.13;;;1.73;;
19219;SDS011;9744;49.364;7.484;2023-07-24T14:26:11;4.95;;;2.10;;
19219;SDS011;9744;49.364;7.484;2023-07-24T14:28:40;3.13;;;2.20;;
19219;SDS011;9744;49.364;7.484;2023-07-24T14:31:07;3.90;;;2.25;;
19219;SDS011;9744;49.364;7.484;2023-07-24T14:33:35;2.97;;;1.85;;
19219;SDS011;9744;49.364;7.484;2023-07-24T14:36:02;2.88;;;2.38;;
19219;SDS011;9744;49.364;7.484;2023-07-24T14:38:29;1.92;;;1.50;;
19219;SDS011;9744;49.364;7.484;2023-07-24T14:40:56;1.63;;;1.25;;
19219;SDS011;9744;49.364;7.484;2023-07-24T14:43:23;1.50;;;1.17;;
19219;SDS011;9744;49.364;7.484;2023-07-24T14:45:52;2.58;;;0.90;;
19219;SDS011;9744;49.364;7.484;2023-07-24T14:48:19;1.73;;;0.90;;
19219;SDS011;9744;49.364;7.484;2023-07-24T14:50:46;1.17;;;0.82;;
19219;SDS011;9744;49.364;7.484;2023-07-24T14:53:14;1.10;;;0.77;;
19219;SDS011;9744;49.364;7.484;2023-07-24T14:55:41;2.20;;;0.80;;
19219;SDS011;9744;49.364;7.484;2023-07-24T14:58:08;1.83;;;0.75;;
19219;SDS011;9744;49.364;7.484;2023-07-24T15:00:35;1.33;;;0.88;;
19219;SDS011;9744;49.364;7.484;2023-07-24T15:03:04;0.52;;;0.52;;
19219;SDS011;9744;49.364;7.484;2023-07-24T15:05:31;1.40;;;0.75;;